createdAt,value
2022-11-17T00:01:43.392Z,40.87
2022-11-17T00:04:13.391Z,41.29
2022-11-17T00:06:41.875Z,41.15
2022-11-17T00:09:17.755Z,41.08
2022-11-17T00:12:03.618Z,40.78
2022-11-17T00:14:36.811Z,40.76
2022-11-17T00:17:06.793Z,40.92
2022-11-17T00:19:54.143Z,40.99
2022-11-17T00:22:22.603Z,40.88
2022-11-17T00:24:51.104Z,40.72
2022-11-17T00:27:19.764Z,40.74
2022-11-17T00:29:48.281Z,40.87
2022-11-17T00:32:35.546Z,40.62
2022-11-17T00:35:05.931Z,40.50
2022-11-17T00:37:36.711Z,40.75
2022-11-17T00:40:06.107Z,40.82
2022-11-17T00:42:34.703Z,40.48
2022-11-17T00:45:03.169Z,40.75
2022-11-17T00:47:31.700Z,40.67
2022-11-17T00:50:00.179Z,40.77
2022-11-17T00:52:30.075Z,40.69
2022-11-17T00:54:58.565Z,40.63
2022-11-17T00:57:27.088Z,40.36
2022-11-17T00:59:55.665Z,40.63
2022-11-17T01:02:24.151Z,40.65
2022-11-17T01:04:52.702Z,40.54
2022-11-17T01:07:22.940Z,40.48
2022-11-17T01:09:52.775Z,40.44
2022-11-17T01:12:21.316Z,40.41
2022-11-17T01:14:49.843Z,40.24
2022-11-17T01:17:18.497Z,40.47
2022-11-17T01:19:46.975Z,40.51
2022-11-17T01:22:15.446Z,40.59
2022-11-17T01:24:43.942Z,40.65
2022-11-17T01:27:14.153Z,40.52
2022-11-17T01:29:42.577Z,40.42
2022-11-17T01:32:11.262Z,40.41
2022-11-17T01:34:39.725Z,40.57
2022-11-17T01:37:23.247Z,40.28
2022-11-17T01:39:51.947Z,40.36
2022-11-17T01:42:23.311Z,40.29
2022-11-17T01:44:57.783Z,40.25
2022-11-17T01:47:34.790Z,40.24
2022-11-17T01:50:10.115Z,40.21
2022-11-17T01:52:39.254Z,40.54
2022-11-17T01:55:09.201Z,40.68
2022-11-17T01:57:41.631Z,40.33
2022-11-17T02:00:11.931Z,40.16
2022-11-17T02:02:40.987Z,40.30
2022-11-17T02:05:19.933Z,40.25
2022-11-17T02:07:48.554Z,40.57
2022-11-17T02:10:17.405Z,39.96
2022-11-17T02:12:47.395Z,40.21
2022-11-17T02:15:15.826Z,40.59
2022-11-17T02:17:44.485Z,39.91
2022-11-17T02:20:15.085Z,40.01
2022-11-17T02:23:11.228Z,40.58
2022-11-17T02:26:16.377Z,40.52
2022-11-17T02:28:46.934Z,40.18
2022-11-17T02:31:24.423Z,39.89
2022-11-17T02:33:56.923Z,40.05
2022-11-17T02:36:31.849Z,39.97
2022-11-17T02:39:03.639Z,40.22
2022-11-17T02:41:36.298Z,39.99
2022-11-17T02:44:10.335Z,40.02
2022-11-17T02:46:44.846Z,39.99
2022-11-17T02:49:17.621Z,40.30
2022-11-17T02:51:46.086Z,40.11
2022-11-17T02:54:14.643Z,40.06
2022-11-17T02:56:43.448Z,40.05
2022-11-17T02:59:14.189Z,40.13
2022-11-17T03:02:19.303Z,40.43
2022-11-17T03:04:56.062Z,39.79
2022-11-17T03:07:36.338Z,39.84
2022-11-17T03:10:10.850Z,39.93
2022-11-17T03:12:43.800Z,40.00
2022-11-17T03:15:23.799Z,39.73
2022-11-17T03:18:00.054Z,39.90
2022-11-17T03:20:31.524Z,39.88
2022-11-17T03:23:02.488Z,39.94
2022-11-17T03:25:31.967Z,39.86
2022-11-17T03:28:03.730Z,39.80
2022-11-17T03:30:37.439Z,39.70
2022-11-17T03:33:09.587Z,39.97
2022-11-17T03:35:40.342Z,39.88
2022-11-17T03:38:11.718Z,39.87
2022-11-17T03:40:41.495Z,40.06
2022-11-17T03:43:09.924Z,39.74
2022-11-17T03:45:41.325Z,39.74
2022-11-17T03:48:14.241Z,39.62
2022-11-17T03:50:44.865Z,39.69
2022-11-17T03:53:13.273Z,39.67
2022-11-17T03:55:46.522Z,39.77
2022-11-17T03:58:17.989Z,39.65
2022-11-17T04:00:48.085Z,39.95
2022-11-17T04:03:16.551Z,39.86
2022-11-17T04:05:45.222Z,39.76
2022-11-17T04:08:13.688Z,39.41
2022-11-17T04:10:56.027Z,39.71
2022-11-17T04:13:42.418Z,39.81
2022-11-17T04:16:12.262Z,39.60
2022-11-17T04:18:40.708Z,39.58
2022-11-17T04:21:09.160Z,39.64
2022-11-17T04:23:37.974Z,39.46
2022-11-17T04:26:24.602Z,39.63
2022-11-17T04:28:53.122Z,39.53
2022-11-17T04:31:24.562Z,39.75
2022-11-17T04:33:54.230Z,39.51
2022-11-17T04:36:24.296Z,39.79
2022-11-17T04:38:54.498Z,39.70
2022-11-17T04:41:41.212Z,39.50
2022-11-17T04:44:11.126Z,39.38
2022-11-17T04:46:41.324Z,39.60
2022-11-17T04:49:09.881Z,39.68
2022-11-17T04:51:38.502Z,39.64
2022-11-17T04:54:07.626Z,39.46
2022-11-17T04:56:36.048Z,39.41
2022-11-17T04:59:04.657Z,39.49
2022-11-17T05:01:34.129Z,39.46
2022-11-17T05:04:06.376Z,39.56
2022-11-17T05:06:41.777Z,39.43
2022-11-17T05:09:12.530Z,39.64
2022-11-17T05:11:59.811Z,39.78
2022-11-17T05:14:28.635Z,39.71
2022-11-17T05:17:11.926Z,39.51
2022-11-17T05:19:45.305Z,39.58
2022-11-17T05:22:32.664Z,39.23
2022-11-17T05:25:01.157Z,39.85
2022-11-17T05:27:29.689Z,39.50
2022-11-17T05:29:58.302Z,39.54
2022-11-17T05:32:26.860Z,39.31
2022-11-17T05:34:56.679Z,39.35
2022-11-17T05:37:25.242Z,39.58
2022-11-17T05:39:53.714Z,39.78
2022-11-17T05:42:22.165Z,39.34
2022-11-17T05:44:50.700Z,39.55
2022-11-17T05:47:19.253Z,39.42
2022-11-17T05:49:47.752Z,39.53
2022-11-17T05:52:17.751Z,39.38
2022-11-17T05:54:46.263Z,39.54
2022-11-17T05:57:16.467Z,39.38
2022-11-17T05:59:46.683Z,39.27
2022-11-17T06:02:17.584Z,39.31
2022-11-17T06:04:46.407Z,39.50
2022-11-17T06:07:18.024Z,39.31
2022-11-17T06:09:46.675Z,39.39
2022-11-17T06:12:15.561Z,39.38
2022-11-17T06:14:44.240Z,39.18
2022-11-17T06:17:21.824Z,39.17
2022-11-17T06:19:55.147Z,39.07
2022-11-17T06:22:25.774Z,39.41
2022-11-17T06:24:54.396Z,39.83
2022-11-17T06:27:22.946Z,40.00
2022-11-17T06:29:51.675Z,40.00
2022-11-17T06:32:20.187Z,40.36
2022-11-17T06:34:55.165Z,40.34
2022-11-17T06:37:26.355Z,40.21
2022-11-17T06:39:54.879Z,40.31
2022-11-17T06:42:44.055Z,40.67
2022-11-17T06:45:13.193Z,40.43
2022-11-17T06:47:41.708Z,40.56
2022-11-17T06:50:11.200Z,40.96
2022-11-17T06:52:41.125Z,40.11
2022-11-17T06:55:10.581Z,40.30
2022-11-17T06:57:39.134Z,39.80
2022-11-17T07:00:09.690Z,39.88
2022-11-17T07:02:38.639Z,39.91
2022-11-17T07:05:07.622Z,39.87
2022-11-17T07:07:36.242Z,39.79
2022-11-17T07:10:07.141Z,39.98
2022-11-17T07:12:35.613Z,40.33
2022-11-17T07:15:04.194Z,40.13
2022-11-17T07:17:33.674Z,40.29
2022-11-17T07:20:06.016Z,39.87
2022-11-17T07:22:34.578Z,40.24
2022-11-17T07:25:03.086Z,40.10
2022-11-17T07:27:32.968Z,40.01
2022-11-17T07:30:02.982Z,40.88
2022-11-17T07:32:31.880Z,40.68
2022-11-17T07:35:02.121Z,40.80
2022-11-17T07:37:33.561Z,40.19
2022-11-17T07:40:02.026Z,40.00
2022-11-17T07:42:32.066Z,40.35
2022-11-17T07:45:00.528Z,40.35
2022-11-17T07:47:29.050Z,40.38
2022-11-17T07:49:57.577Z,40.37
2022-11-17T07:52:26.196Z,40.67
2022-11-17T07:54:54.641Z,40.19
2022-11-17T07:57:25.728Z,40.37
2022-11-17T07:59:55.819Z,40.01
2022-11-17T08:02:24.461Z,40.13
2022-11-17T08:04:52.905Z,39.89
2022-11-17T08:07:21.761Z,40.00
2022-11-17T08:09:50.292Z,39.97
2022-11-17T08:12:18.917Z,40.25
2022-11-17T08:14:47.660Z,40.21
2022-11-17T08:17:18.250Z,40.00
2022-11-17T08:19:46.733Z,39.96
2022-11-17T08:22:15.239Z,40.11
2022-11-17T08:24:44.048Z,39.76
2022-11-17T08:27:12.639Z,40.10
2022-11-17T08:29:41.182Z,39.84
2022-11-17T08:32:09.776Z,39.41
2022-11-17T08:34:39.667Z,39.69
2022-11-17T08:37:08.171Z,39.73
2022-11-17T08:39:36.631Z,39.57
2022-11-17T08:42:05.222Z,39.53
2022-11-17T08:44:33.721Z,39.64
2022-11-17T08:47:02.239Z,39.50
2022-11-17T08:49:32.237Z,39.46
2022-11-17T08:52:01.998Z,39.38
2022-11-17T08:54:30.517Z,39.37
2022-11-17T08:56:59.542Z,39.45
2022-11-17T08:59:28.275Z,39.47
2022-11-17T09:02:16.982Z,39.46
2022-11-17T09:05:09.995Z,39.29
2022-11-17T09:07:39.990Z,39.42
2022-11-17T09:10:11.250Z,39.36
2022-11-17T09:12:43.003Z,39.49
2022-11-17T09:15:12.339Z,39.16
2022-11-17T09:17:43.099Z,39.40
2022-11-17T09:20:13.258Z,39.39
2022-11-17T09:22:43.166Z,39.26
2022-11-17T09:25:13.543Z,39.42
2022-11-17T09:27:43.434Z,39.48
2022-11-17T09:30:13.140Z,39.50
2022-11-17T09:32:41.604Z,39.23
2022-11-17T09:35:11.144Z,39.11
2022-11-17T09:37:39.609Z,39.55
2022-11-17T09:40:13.871Z,39.17
2022-11-17T09:42:42.403Z,39.35
2022-11-17T09:45:14.846Z,39.17
2022-11-17T09:47:45.110Z,39.01
2022-11-17T09:50:20.309Z,38.79
2022-11-17T09:52:56.379Z,38.94
2022-11-17T09:55:34.416Z,39.17
2022-11-17T09:58:09.953Z,39.14
2022-11-17T10:00:38.622Z,39.10
2022-11-17T10:03:15.556Z,38.91
2022-11-17T10:05:44.046Z,38.82
2022-11-17T10:08:14.437Z,38.93
2022-11-17T10:10:46.832Z,39.07
2022-11-17T10:13:23.204Z,38.64
2022-11-17T10:15:53.407Z,38.80
2022-11-17T10:18:21.842Z,38.73
2022-11-17T10:20:52.865Z,38.88
2022-11-17T10:23:21.418Z,38.67
2022-11-17T10:25:57.679Z,38.48
2022-11-17T10:28:28.631Z,38.66
2022-11-17T10:31:00.235Z,38.68
2022-11-17T10:33:39.881Z,38.85
2022-11-17T10:36:16.359Z,38.54
2022-11-17T10:38:49.335Z,38.69
2022-11-17T10:41:21.424Z,38.53
2022-11-17T10:43:58.685Z,38.60
2022-11-17T10:46:30.979Z,38.44
2022-11-17T10:49:05.504Z,38.51
2022-11-17T10:51:34.609Z,38.89
2022-11-17T10:54:06.556Z,38.43
2022-11-17T10:56:40.665Z,38.54
2022-11-17T10:59:16.416Z,38.66
2022-11-17T11:01:46.187Z,38.65
2022-11-17T11:04:35.405Z,38.66
2022-11-17T11:07:09.631Z,38.37
2022-11-17T11:12:13.427Z,38.02
2022-11-17T11:17:12.239Z,38.39
2022-11-17T11:22:27.900Z,38.68
2022-11-17T11:25:09.332Z,38.91
2022-11-17T11:27:57.702Z,38.75
2022-11-17T11:30:26.296Z,38.80
2022-11-17T11:33:06.692Z,38.40
2022-11-17T11:35:45.675Z,37.97
2022-11-17T11:38:31.644Z,38.58
2022-11-17T11:41:13.908Z,38.33
2022-11-17T11:43:52.713Z,38.20
2022-11-17T11:46:25.480Z,38.17
2022-11-17T11:48:57.096Z,38.17
2022-11-17T11:51:30.022Z,38.32
2022-11-17T11:53:59.853Z,38.18
2022-11-17T11:56:33.059Z,38.19
2022-11-17T11:59:05.694Z,38.18
2022-11-17T12:01:40.671Z,38.13
2022-11-17T12:04:18.478Z,37.98
2022-11-17T12:06:54.096Z,38.00
2022-11-17T12:09:45.683Z,38.48
2022-11-17T12:12:17.107Z,38.38
2022-11-17T12:15:31.891Z,38.61
2022-11-17T12:18:02.866Z,38.18
2022-11-17T12:20:56.541Z,38.81
2022-11-17T12:24:03.038Z,38.59
2022-11-17T12:26:32.736Z,38.33
2022-11-17T12:29:30.945Z,38.56
2022-11-17T12:32:02.269Z,37.81
2022-11-17T12:34:32.817Z,37.95
2022-11-17T12:37:16.963Z,37.87
2022-11-17T12:40:08.041Z,38.01
2022-11-17T12:42:37.217Z,37.85
2022-11-17T12:45:11.095Z,37.79
2022-11-17T12:47:42.193Z,37.83
2022-11-17T12:50:44.320Z,38.27
2022-11-17T12:53:49.323Z,38.32
2022-11-17T12:56:48.529Z,38.21
2022-11-17T12:59:36.904Z,38.17
2022-11-17T13:02:26.865Z,37.88
2022-11-17T13:04:58.832Z,37.91
2022-11-17T13:07:28.231Z,37.95
2022-11-17T13:09:58.553Z,38.17
2022-11-17T13:12:28.938Z,38.00
2022-11-17T13:14:58.442Z,37.92
2022-11-17T13:17:29.931Z,37.93
2022-11-17T13:20:04.143Z,37.83
2022-11-17T13:22:35.335Z,37.81
2022-11-17T13:25:20.184Z,37.61
2022-11-17T13:27:55.006Z,37.75
2022-11-17T13:30:27.382Z,37.79
2022-11-17T13:32:56.307Z,37.98
2022-11-17T13:35:28.999Z,37.65
2022-11-17T13:38:07.947Z,37.75
2022-11-17T13:40:36.679Z,37.55
2022-11-17T13:43:05.528Z,37.79
2022-11-17T13:45:34.179Z,37.57
2022-11-17T13:48:02.727Z,37.58
2022-11-17T13:50:40.053Z,37.48
2022-11-17T13:53:25.527Z,37.62
2022-11-17T13:55:54.474Z,37.87
2022-11-17T13:58:29.244Z,37.70
2022-11-17T14:00:58.725Z,37.50
2022-11-17T14:03:37.821Z,37.75
2022-11-17T14:06:09.564Z,37.86
2022-11-17T14:08:39.031Z,38.24
2022-11-17T14:11:16.764Z,38.18
2022-11-17T14:13:46.132Z,38.23
2022-11-17T14:16:23.827Z,37.87
2022-11-17T14:19:01.623Z,38.14
2022-11-17T14:21:32.000Z,38.16
2022-11-17T14:24:06.953Z,38.18
2022-11-17T14:26:35.440Z,38.14
2022-11-17T14:29:03.952Z,38.03
2022-11-17T14:31:33.385Z,38.03
2022-11-17T14:34:01.835Z,38.00
2022-11-17T14:36:31.711Z,38.07
2022-11-17T14:39:00.529Z,37.88
2022-11-17T14:41:29.133Z,38.03
2022-11-17T14:43:57.710Z,38.19
2022-11-17T14:46:27.276Z,38.33
2022-11-17T14:48:56.499Z,38.21
2022-11-17T14:51:25.688Z,38.09
2022-11-17T14:53:55.599Z,38.08
2022-11-17T14:56:24.794Z,37.88
2022-11-17T14:58:55.732Z,37.80
2022-11-17T15:01:28.421Z,38.00
2022-11-17T15:03:58.112Z,37.90
2022-11-17T15:06:26.685Z,37.77
2022-11-17T15:08:57.599Z,37.63
2022-11-17T15:11:26.567Z,37.63
2022-11-17T15:13:55.139Z,37.86
2022-11-17T15:16:23.866Z,37.82
2022-11-17T15:18:52.613Z,37.63
2022-11-17T15:21:21.261Z,37.69
2022-11-17T15:23:49.935Z,37.79
2022-11-17T15:26:23.480Z,37.80
2022-11-17T15:28:52.387Z,38.07
2022-11-17T15:31:21.367Z,37.54
2022-11-17T15:33:50.020Z,38.03
2022-11-17T15:36:20.275Z,37.81
2022-11-17T15:38:48.987Z,37.94
2022-11-17T15:41:19.482Z,37.35
2022-11-17T15:43:48.221Z,37.63
2022-11-17T15:46:17.823Z,37.79
2022-11-17T15:48:47.593Z,37.84
2022-11-17T15:51:17.301Z,37.70
2022-11-17T15:53:46.452Z,37.64
2022-11-17T15:56:16.814Z,37.70
2022-11-17T15:58:47.389Z,38.02
2022-11-17T16:01:16.890Z,38.18
2022-11-17T16:03:46.379Z,39.14
2022-11-17T16:06:15.203Z,39.42
2022-11-17T16:08:43.749Z,39.22
2022-11-17T16:11:12.528Z,40.71
2022-11-17T16:13:41.179Z,40.11
2022-11-17T16:16:13.392Z,40.01
2022-11-17T16:18:41.911Z,40.44
2022-11-17T16:21:13.351Z,39.93
2022-11-17T16:23:45.589Z,39.53
2022-11-17T16:26:15.198Z,39.76
2022-11-17T16:28:43.908Z,39.88
2022-11-17T16:31:18.939Z,39.42
2022-11-17T16:33:50.363Z,39.32
2022-11-17T16:36:19.322Z,40.41
2022-11-17T16:39:00.696Z,41.01
2022-11-17T16:41:31.863Z,39.67
2022-11-17T16:44:00.556Z,39.14
2022-11-17T16:46:31.746Z,39.21
2022-11-17T16:49:02.846Z,39.03
2022-11-17T16:51:31.452Z,38.76
2022-11-17T16:54:02.056Z,39.00
2022-11-17T16:56:30.956Z,39.02
2022-11-17T16:58:59.797Z,38.95
2022-11-17T17:01:31.968Z,38.87
2022-11-17T17:04:01.637Z,38.75
2022-11-17T17:06:30.384Z,38.84
2022-11-17T17:09:00.334Z,38.83
2022-11-17T17:11:29.413Z,38.74
2022-11-17T17:13:58.425Z,38.89
2022-11-17T17:16:27.021Z,38.81
2022-11-17T17:18:59.459Z,38.90
2022-11-17T17:21:28.623Z,38.77
2022-11-17T17:23:57.413Z,38.60
2022-11-17T17:26:27.733Z,38.59
2022-11-17T17:28:58.227Z,38.71
2022-11-17T17:31:28.060Z,38.64
2022-11-17T17:33:59.962Z,38.42
2022-11-17T17:36:32.083Z,38.46
2022-11-17T17:39:02.297Z,38.35
2022-11-17T17:41:32.389Z,38.41
2022-11-17T17:44:02.347Z,38.52
2022-11-17T17:46:31.345Z,38.56
2022-11-17T17:49:01.305Z,38.40
2022-11-17T17:51:30.725Z,38.46
2022-11-17T17:54:02.190Z,38.06
2022-11-17T17:56:31.669Z,38.27
2022-11-17T17:59:00.384Z,37.92
2022-11-17T18:01:29.968Z,38.15
2022-11-17T18:04:04.992Z,38.26
2022-11-17T18:06:36.638Z,38.32
2022-11-17T18:09:05.848Z,38.20
2022-11-17T18:11:34.320Z,38.20
2022-11-17T18:14:02.973Z,38.14
2022-11-17T18:16:33.349Z,38.18
2022-11-17T18:19:04.744Z,38.06
2022-11-17T18:21:33.447Z,38.22
2022-11-17T18:24:02.808Z,38.25
2022-11-17T18:26:32.436Z,38.15
2022-11-17T18:29:02.216Z,38.13
2022-11-17T18:31:32.492Z,38.12
2022-11-17T18:34:04.027Z,38.13
2022-11-17T18:36:33.320Z,38.07
2022-11-17T18:39:02.058Z,38.14
2022-11-17T18:41:33.747Z,37.98
2022-11-17T18:44:02.445Z,38.02
2022-11-17T18:46:32.122Z,38.00
2022-11-17T18:49:02.273Z,38.04
2022-11-17T18:51:32.369Z,38.03
2022-11-17T18:54:01.863Z,37.90
2022-11-17T18:56:32.805Z,37.98
2022-11-17T18:59:01.697Z,37.99
2022-11-17T19:01:31.677Z,37.92
2022-11-17T19:04:02.291Z,38.10
2022-11-17T19:06:31.137Z,37.65
2022-11-17T19:09:00.362Z,37.85
2022-11-17T19:11:30.808Z,37.46
2022-11-17T19:14:00.264Z,37.64
2022-11-17T19:16:28.936Z,37.48
2022-11-17T19:18:58.045Z,37.47
2022-11-17T19:21:28.991Z,37.67
2022-11-17T19:23:59.633Z,37.25
2022-11-17T19:26:28.943Z,37.15
2022-11-17T19:28:58.149Z,37.28
2022-11-17T19:31:26.795Z,37.30
2022-11-17T19:33:55.798Z,37.12
2022-11-17T19:36:25.495Z,37.08
2022-11-17T19:38:56.438Z,37.10
2022-11-17T19:41:26.340Z,37.04
2022-11-17T19:43:56.862Z,37.07
2022-11-17T19:46:26.827Z,36.90
2022-11-17T19:48:55.926Z,37.10
2022-11-17T19:51:26.106Z,36.98
2022-11-17T19:53:57.381Z,37.04
2022-11-17T19:56:26.451Z,37.07
2022-11-17T19:58:55.626Z,36.89
2022-11-17T20:01:25.448Z,37.06
2022-11-17T20:03:54.125Z,36.86
2022-11-17T20:06:24.143Z,36.92
2022-11-17T20:08:52.659Z,36.88
2022-11-17T20:11:24.012Z,37.03
2022-11-17T20:13:52.577Z,36.91
2022-11-17T20:16:24.683Z,36.87
2022-11-17T20:18:54.465Z,36.67
2022-11-17T20:21:23.436Z,36.81
2022-11-17T20:23:51.991Z,36.90
2022-11-17T20:26:23.210Z,36.89
2022-11-17T20:28:52.317Z,36.76
2022-11-17T20:31:21.959Z,37.30
2022-11-17T20:33:50.786Z,36.98
2022-11-17T20:36:20.411Z,36.94
2022-11-17T20:38:51.724Z,36.77
2022-11-17T20:41:21.210Z,36.93
2022-11-17T20:43:51.779Z,37.16
2022-11-17T20:46:20.840Z,37.00
2022-11-17T20:48:49.681Z,37.05
2022-11-17T20:51:19.238Z,37.24
2022-11-17T20:53:47.959Z,37.30
2022-11-17T20:56:19.106Z,37.24
2022-11-17T20:58:47.727Z,37.46
2022-11-17T21:01:18.571Z,37.40
2022-11-17T21:03:47.372Z,37.49
2022-11-17T21:06:16.251Z,37.24
2022-11-17T21:08:45.459Z,37.59
2022-11-17T21:11:35.927Z,37.23
2022-11-17T21:14:05.130Z,37.22
2022-11-17T21:16:35.284Z,37.40
2022-11-17T21:19:03.760Z,37.26
2022-11-17T21:21:32.267Z,37.06
2022-11-17T21:24:00.853Z,37.36
2022-11-17T21:26:29.756Z,37.25
2022-11-17T21:29:03.170Z,37.21
2022-11-17T21:31:35.981Z,37.08
2022-11-17T21:34:06.319Z,37.28
2022-11-17T21:36:35.668Z,36.96
2022-11-17T21:39:04.478Z,37.21
2022-11-17T21:41:35.424Z,37.17
2022-11-17T21:44:04.923Z,37.12
2022-11-17T21:46:36.470Z,37.21
2022-11-17T21:49:05.247Z,37.31
2022-11-17T21:51:34.978Z,36.79
2022-11-17T21:54:04.762Z,37.07
2022-11-17T21:56:33.265Z,36.85
2022-11-17T21:59:02.919Z,36.91
2022-11-17T22:01:31.758Z,36.86
2022-11-17T22:04:01.600Z,36.80
2022-11-17T22:06:30.412Z,36.70
2022-11-17T22:08:59.620Z,36.63
2022-11-17T22:11:38.762Z,36.77
2022-11-17T22:14:10.266Z,36.65
2022-11-17T22:16:39.803Z,36.64
2022-11-17T22:19:10.099Z,36.80
2022-11-17T22:21:38.801Z,36.65
2022-11-17T22:24:10.058Z,36.77
2022-11-17T22:26:40.914Z,36.83
2022-11-17T22:29:11.947Z,36.66
2022-11-17T22:31:40.437Z,36.74
2022-11-17T22:34:10.239Z,36.57
2022-11-17T22:36:38.758Z,36.41
2022-11-17T22:39:07.460Z,36.40
2022-11-17T22:41:36.068Z,36.63
2022-11-17T22:44:04.697Z,36.63
2022-11-17T22:46:33.188Z,36.52
2022-11-17T22:49:01.760Z,36.74
2022-11-17T22:51:49.399Z,36.59
2022-11-17T22:54:17.863Z,36.39
2022-11-17T22:56:46.475Z,36.42
2022-11-17T22:59:15.064Z,36.45
2022-11-17T23:01:43.727Z,36.62
2022-11-17T23:04:12.939Z,36.50
2022-11-17T23:06:43.110Z,36.79
2022-11-17T23:09:11.765Z,37.22
2022-11-17T23:11:40.264Z,36.78
2022-11-17T23:14:10.539Z,36.52
2022-11-17T23:16:39.105Z,36.42
2022-11-17T23:19:09.569Z,36.39
2022-11-17T23:21:38.150Z,36.50
2022-11-17T23:24:12.731Z,36.45
2022-11-17T23:26:41.883Z,36.65
2022-11-17T23:29:10.777Z,36.54
2022-11-17T23:31:39.298Z,36.64
2022-11-17T23:34:09.907Z,36.32
2022-11-17T23:36:38.381Z,36.58
2022-11-17T23:39:08.497Z,36.39
2022-11-17T23:41:36.999Z,36.38
2022-11-17T23:44:06.172Z,36.16
2022-11-17T23:46:35.792Z,36.29
2022-11-17T23:49:04.337Z,36.21
2022-11-17T23:51:32.854Z,36.10
2022-11-17T23:54:02.918Z,35.90
2022-11-17T23:56:34.717Z,35.95
2022-11-17T23:59:03.736Z,36.27
